Thumrait, Oman
Current Conditions -  °F | °C
As of 9:55 PM on Friday 28 Nov 2014 (Local Time) from KQTH Reporting Station
Clear Clear  
Wind Chill: 73°   Ceiling: Unl
Heat Index: 73°   Visibility: 6mi
Dew Point: 55°   Wind: 6mph
Humidity: 54%   Direction: 160°SSE
Pressure: 30.1"   Gusts: NA
Location:  17.63°N, 54.02°E
Report Text: KQTH 281755Z AUTO 16005KT 9999 CLR 23/13 A3010 RMK AO2 SLP173 T02250129 51017 $
Loading
Personal Weather Stations






























Interactive Weather Map New forecast layout! Learn more

10-Day Weather Forecast

Advertisements
Track Severe Weather on mobile